createdAt,value
2023-03-12T00:17:02.905Z,73.85
2023-03-12T00:45:20.735Z,75.4
2023-03-12T01:13:36.501Z,76.42
2023-03-12T01:42:26.232Z,77.46
2023-03-12T02:11:07.488Z,76.5
2023-03-12T02:39:59.566Z,76.09
2023-03-12T03:09:02.934Z,76.33
2023-03-12T03:37:38.060Z,77.85
2023-03-12T04:06:32.159Z,78.72
2023-03-12T04:35:25.813Z,82.4
2023-03-12T05:04:21.505Z,85.23
2023-03-12T05:33:20.181Z,88.77
2023-03-12T06:02:19.617Z,90.09
2023-03-12T06:30:38.842Z,91.18
2023-03-12T06:59:25.284Z,91.7
2023-03-12T07:28:28.508Z,93.5
2023-03-12T07:57:09.115Z,100.54
2023-03-12T08:25:53.464Z,100.82
2023-03-12T08:54:44.391Z,97.02
2023-03-12T09:23:31.480Z,94.22
2023-03-12T09:51:52.172Z,90.15
2023-03-12T10:20:37.472Z,84.34
2023-03-12T10:49:23.548Z,77.95
2023-03-12T11:17:56.002Z,73.77
2023-03-12T11:46:49.371Z,72.83
2023-03-12T12:15:28.802Z,78.39
2023-03-12T12:44:24.135Z,80.2
2023-03-12T13:13:13.981Z,71.33
2023-03-12T13:41:47.947Z,65.71
2023-03-12T14:10:36.699Z,62.96
2023-03-12T14:39:17.233Z,60.8
2023-03-12T15:08:00.361Z,61.03
2023-03-12T15:36:34.401Z,60.36
2023-03-12T16:05:21.712Z,61.78
2023-03-12T16:33:55.689Z,64.01
2023-03-12T17:02:13.244Z,65.72
2023-03-12T17:30:46.199Z,68.18
2023-03-12T17:59:19.011Z,70.65
2023-03-12T18:27:55.354Z,71.88
2023-03-12T18:56:14.435Z,70.84
2023-03-12T19:25:00.134Z,72.79
2023-03-12T19:53:56.279Z,74.91
2023-03-12T20:22:38.977Z,78.33
2023-03-12T20:51:29.043Z,79.78
2023-03-12T21:20:21.917Z,79.16
2023-03-12T21:48:58.257Z,77.07
2023-03-12T22:17:37.442Z,75.92
2023-03-12T22:46:12.648Z,75.88
2023-03-12T23:14:49.879Z,75.06
2023-03-12T23:43:26.302Z,74.83
